createdAt,value
2019-05-16T00:01:19.384Z,16.77
2019-05-16T00:03:48.982Z,15.55
2019-05-16T00:06:19.724Z,16.70
2019-05-16T00:08:50.283Z,16.73
2019-05-16T00:11:20.801Z,17.75
2019-05-16T00:13:51.282Z,16.77
2019-05-16T00:16:21.966Z,15.85
2019-05-16T00:18:52.534Z,18.20
2019-05-16T00:21:23.163Z,17.35
2019-05-16T00:23:53.728Z,17.45
2019-05-16T00:26:24.374Z,18.17
2019-05-16T00:28:54.969Z,17.50
2019-05-16T00:31:25.539Z,17.87
2019-05-16T00:33:57.875Z,17.80
2019-05-16T00:36:28.528Z,18.23
2019-05-16T00:38:59.071Z,18.55
2019-05-16T00:41:29.711Z,18.35
2019-05-16T00:44:00.224Z,18.87
2019-05-16T00:46:30.937Z,18.27
2019-05-16T00:49:01.576Z,17.90
2019-05-16T00:51:32.927Z,18.67
2019-05-16T00:54:03.512Z,18.12
2019-05-16T00:56:35.159Z,18.48
2019-05-16T00:59:07.887Z,18.40
2019-05-16T01:01:38.900Z,18.02
2019-05-16T01:04:09.596Z,18.65
2019-05-16T01:06:40.120Z,19.42
2019-05-16T01:09:11.687Z,19.40
2019-05-16T01:11:44.230Z,19.05
2019-05-16T01:14:14.832Z,19.85
2019-05-16T01:16:45.298Z,19.80
2019-05-16T01:19:15.887Z,19.80
2019-05-16T01:21:48.340Z,19.87
2019-05-16T01:24:18.909Z,19.92
2019-05-16T01:26:49.612Z,19.77
2019-05-16T01:29:20.154Z,20.30
2019-05-16T01:31:50.625Z,20.02
2019-05-16T01:34:21.144Z,20.80
2019-05-16T01:36:51.942Z,20.97
2019-05-16T01:39:22.580Z,19.20
2019-05-16T01:41:53.106Z,18.98
2019-05-16T01:44:23.702Z,20.12
2019-05-16T01:46:54.413Z,19.45
2019-05-16T01:49:25.134Z,19.50
2019-05-16T01:51:57.740Z,20.25
2019-05-16T01:54:28.298Z,20.20
2019-05-16T01:57:00.043Z,20.65
2019-05-16T01:59:30.527Z,20.95
2019-05-16T02:02:01.576Z,19.42
2019-05-16T02:04:32.184Z,20.12
2019-05-16T02:07:02.818Z,20.40
2019-05-16T02:09:33.416Z,20.48
2019-05-16T02:12:04.050Z,20.02
2019-05-16T02:14:34.606Z,21.05
2019-05-16T02:17:05.390Z,21.20
2019-05-16T02:19:38.352Z,21.87
2019-05-16T02:22:08.893Z,20.82
2019-05-16T02:24:39.640Z,20.90
2019-05-16T02:27:10.155Z,20.90
2019-05-16T02:29:40.712Z,22.00
2019-05-16T02:32:11.787Z,21.17
2019-05-16T02:34:43.311Z,21.02
2019-05-16T02:37:24.501Z,22.02
2019-05-16T02:39:46.209Z,21.65
2019-05-16T02:42:16.830Z,21.35
2019-05-16T02:44:47.441Z,21.00
2019-05-16T02:47:20.725Z,21.68
2019-05-16T02:49:50.614Z,21.95
2019-05-16T02:52:21.702Z,21.90
2019-05-16T02:54:52.491Z,21.80
2019-05-16T02:57:23.054Z,21.20
2019-05-16T02:59:53.575Z,22.60
2019-05-16T03:02:24.181Z,22.70
2019-05-16T03:04:54.754Z,23.45
2019-05-16T03:07:37.627Z,23.40
2019-05-16T03:10:01.625Z,22.98
2019-05-16T03:12:33.020Z,24.15
2019-05-16T03:15:04.343Z,24.75
2019-05-16T03:17:36.156Z,24.55
2019-05-16T03:20:10.538Z,25.85
2019-05-16T03:22:41.185Z,25.77
2019-05-16T03:25:12.880Z,25.90
2019-05-16T03:27:43.591Z,26.60
2019-05-16T03:30:16.590Z,26.33
2019-05-16T03:32:46.829Z,26.07
2019-05-16T03:35:19.362Z,25.23
2019-05-16T03:37:55.808Z,24.85
2019-05-16T03:40:27.225Z,24.63
2019-05-16T03:43:01.022Z,25.43
2019-05-16T03:45:31.775Z,26.45
2019-05-16T03:48:03.372Z,26.35
2019-05-16T03:50:34.298Z,26.33
2019-05-16T03:53:04.902Z,28.50
2019-05-16T03:55:35.512Z,26.57
2019-05-16T03:58:06.158Z,28.40
2019-05-16T04:00:55.756Z,29.10
2019-05-16T04:03:28.886Z,27.40
2019-05-16T04:06:01.191Z,27.50
2019-05-16T04:08:31.290Z,27.85
2019-05-16T04:11:01.907Z,29.07
2019-05-16T04:13:32.877Z,28.10
2019-05-16T04:16:03.430Z,30.08
2019-05-16T04:18:34.182Z,28.65
2019-05-16T04:21:04.967Z,29.57
2019-05-16T04:23:35.489Z,30.12
2019-05-16T04:26:06.026Z,30.32
2019-05-16T04:28:36.575Z,31.00
2019-05-16T04:31:07.092Z,31.87
2019-05-16T04:33:37.584Z,30.85
2019-05-16T04:36:10.804Z,30.68
2019-05-16T04:38:46.002Z,31.55
2019-05-16T04:41:12.402Z,30.92
2019-05-16T04:43:42.969Z,31.20
2019-05-16T04:46:13.471Z,29.92
2019-05-16T04:48:44.074Z,29.50
2019-05-16T04:51:14.578Z,28.57
2019-05-16T04:53:45.074Z,29.48
2019-05-16T04:56:15.708Z,30.23
2019-05-16T04:58:46.311Z,29.98
2019-05-16T05:01:16.843Z,30.00
2019-05-16T05:04:02.097Z,32.23
2019-05-16T05:06:20.792Z,31.68
2019-05-16T05:08:58.429Z,32.28
2019-05-16T05:11:24.652Z,31.20
2019-05-16T05:13:55.158Z,31.77
2019-05-16T05:16:25.714Z,30.90
2019-05-16T05:18:56.266Z,30.02
2019-05-16T05:21:26.844Z,30.57
2019-05-16T05:23:59.949Z,30.85
2019-05-16T05:26:30.606Z,30.45
2019-05-16T05:29:01.562Z,30.35
2019-05-16T05:31:34.998Z,29.77
2019-05-16T05:34:13.913Z,28.83
2019-05-16T05:36:44.480Z,26.75
2019-05-16T05:39:15.685Z,26.97
2019-05-16T05:41:46.296Z,22.30
2019-05-16T05:44:16.817Z,21.42
2019-05-16T05:46:47.457Z,18.73
2019-05-16T05:49:20.346Z,19.62
2019-05-16T05:51:50.247Z,20.17
2019-05-16T05:54:20.782Z,19.75
2019-05-16T05:56:51.723Z,18.67
2019-05-16T05:59:22.269Z,18.65
2019-05-16T06:01:53.143Z,18.42
2019-05-16T06:04:23.909Z,18.15
2019-05-16T06:06:54.530Z,18.30
2019-05-16T06:09:29.051Z,17.40
2019-05-16T06:11:57.171Z,19.02
2019-05-16T06:14:30.445Z,18.57
2019-05-16T06:17:00.434Z,18.48
2019-05-16T06:19:31.093Z,17.35
2019-05-16T06:22:01.740Z,17.87
2019-05-16T06:24:32.502Z,18.75
2019-05-16T06:27:03.007Z,18.30
2019-05-16T06:29:33.581Z,18.35
2019-05-16T06:32:04.128Z,18.85
2019-05-16T06:34:34.647Z,18.48
2019-05-16T06:37:05.515Z,18.15
2019-05-16T06:39:41.995Z,17.77
2019-05-16T06:42:09.870Z,18.55
2019-05-16T06:44:40.561Z,17.82
2019-05-16T06:47:19.384Z,17.92
2019-05-16T06:49:46.977Z,18.07
2019-05-16T06:52:19.612Z,17.73
2019-05-16T06:54:50.416Z,18.35
2019-05-16T06:57:21.839Z,17.45
2019-05-16T06:59:52.546Z,17.30
2019-05-16T07:02:29.872Z,16.77
2019-05-16T07:04:55.398Z,17.20
2019-05-16T07:07:25.907Z,17.00
2019-05-16T07:10:00.751Z,17.30
2019-05-16T07:12:31.481Z,17.55
2019-05-16T07:15:02.109Z,17.27
2019-05-16T07:17:33.950Z,17.50
2019-05-16T07:20:04.790Z,16.82
2019-05-16T07:22:35.305Z,16.25
2019-05-16T07:25:06.248Z,16.73
2019-05-16T07:27:40.028Z,18.65
2019-05-16T07:30:11.764Z,19.02
2019-05-16T07:32:42.365Z,18.02
2019-05-16T07:35:12.956Z,18.90
2019-05-16T07:37:43.594Z,19.45
2019-05-16T07:40:22.341Z,19.75
2019-05-16T07:42:47.892Z,19.30
2019-05-16T07:45:20.355Z,22.15
2019-05-16T07:47:51.230Z,20.72
2019-05-16T07:50:21.731Z,21.05
2019-05-16T07:52:52.247Z,21.02
2019-05-16T07:55:22.818Z,22.32
2019-05-16T07:57:53.462Z,22.42
2019-05-16T08:00:43.468Z,21.70
2019-05-16T08:02:56.659Z,20.80
2019-05-16T08:05:29.853Z,20.35
2019-05-16T08:08:00.071Z,19.73
2019-05-16T08:10:37.883Z,20.77
2019-05-16T08:13:03.571Z,19.90
2019-05-16T08:15:34.340Z,18.90
2019-05-16T08:18:05.122Z,19.57
2019-05-16T08:20:35.705Z,20.60
2019-05-16T08:23:06.262Z,19.85
2019-05-16T08:25:40.632Z,19.67
2019-05-16T08:28:11.689Z,19.48
2019-05-16T08:30:42.447Z,19.67
2019-05-16T08:33:13.707Z,20.55
2019-05-16T08:35:44.579Z,20.43
2019-05-16T08:38:15.175Z,20.45
2019-05-16T08:41:04.352Z,21.35
2019-05-16T08:43:21.353Z,20.40
2019-05-16T08:45:51.484Z,20.52
2019-05-16T08:50:55.171Z,19.23
2019-05-16T08:53:25.996Z,18.12
2019-05-16T08:55:56.587Z,16.75
2019-05-16T08:58:27.325Z,15.30
2019-05-16T09:01:01.939Z,15.32
2019-05-16T09:03:32.278Z,15.40
2019-05-16T09:06:03.275Z,14.70
2019-05-16T09:08:33.969Z,14.33
2019-05-16T09:10:31.814Z,19.10
2019-05-16T09:11:24.940Z,14.28
2019-05-16T09:13:37.080Z,14.63
2019-05-16T09:16:07.986Z,14.63
2019-05-16T09:18:45.847Z,14.40
2019-05-16T09:21:11.655Z,13.58
2019-05-16T09:23:42.202Z,13.13
2019-05-16T09:26:16.141Z,13.45
2019-05-16T09:28:47.954Z,12.98
2019-05-16T09:31:24.005Z,12.55
2019-05-16T09:33:49.062Z,12.88
2019-05-16T09:36:19.679Z,13.38
2019-05-16T09:38:50.191Z,12.50
2019-05-16T09:41:20.702Z,13.30
2019-05-16T09:43:51.253Z,13.58
2019-05-16T09:46:21.738Z,13.58
2019-05-16T09:49:10.078Z,12.70
2019-05-16T09:51:26.908Z,12.85
2019-05-16T09:53:56.891Z,13.15
2019-05-16T09:56:27.549Z,12.75
2019-05-16T09:58:58.145Z,12.60
2019-05-16T10:01:28.678Z,12.53
2019-05-16T10:03:59.276Z,11.80
2019-05-16T10:06:29.772Z,12.10
2019-05-16T10:09:00.436Z,11.73
2019-05-16T10:11:32.749Z,12.95
2019-05-16T10:14:03.372Z,11.75
2019-05-16T10:16:36.519Z,11.55
2019-05-16T10:19:07.471Z,11.35
2019-05-16T10:21:39.357Z,12.40
2019-05-16T10:24:09.822Z,11.63
2019-05-16T10:26:40.413Z,11.90
2019-05-16T10:29:11.139Z,11.35
2019-05-16T10:31:49.309Z,10.90
2019-05-16T10:34:13.900Z,11.25
2019-05-16T10:36:47.009Z,10.23
2019-05-16T10:39:16.722Z,9.60
2019-05-16T10:41:47.376Z,9.73
2019-05-16T10:44:17.908Z,10.70
2019-05-16T10:46:48.543Z,11.03
2019-05-16T10:49:33.205Z,10.43
2019-05-16T10:51:51.147Z,11.33
2019-05-16T10:54:21.831Z,11.12
2019-05-16T10:56:52.664Z,10.45
2019-05-16T10:59:54.620Z,10.95
2019-05-16T11:01:56.342Z,10.38
2019-05-16T11:04:37.179Z,10.63
2019-05-16T11:07:01.388Z,11.25
2019-05-16T11:09:31.942Z,11.55
2019-05-16T11:12:02.436Z,10.70
2019-05-16T11:14:32.969Z,11.55
2019-05-16T11:17:03.464Z,10.98
2019-05-16T11:19:33.990Z,10.60
2019-05-16T11:22:04.573Z,11.18
2019-05-16T11:24:37.547Z,11.03
2019-05-16T11:27:07.628Z,10.98
2019-05-16T11:29:38.223Z,10.75
2019-05-16T11:32:09.172Z,13.40
2019-05-16T11:34:39.744Z,13.03
2019-05-16T11:37:09.681Z,10.85
2019-05-16T11:39:40.029Z,10.72
2019-05-16T11:42:10.535Z,11.10
2019-05-16T11:44:40.994Z,10.95
2019-05-16T11:47:11.463Z,10.80
2019-05-16T11:49:41.992Z,10.93
2019-05-16T11:52:12.445Z,10.65
2019-05-16T11:54:42.984Z,10.50
2019-05-16T11:57:13.453Z,10.93
2019-05-16T11:59:44.036Z,10.50
2019-05-16T12:02:17.516Z,10.48
2019-05-16T12:04:47.510Z,11.53
2019-05-16T12:07:19.240Z,11.03
2019-05-16T12:09:55.136Z,10.23
2019-05-16T12:12:23.099Z,10.65
2019-05-16T12:14:56.000Z,10.28
2019-05-16T12:17:27.950Z,10.10
2019-05-16T12:19:58.009Z,10.43
2019-05-16T12:22:28.516Z,11.15
2019-05-16T12:24:59.159Z,10.85
2019-05-16T12:27:32.485Z,11.53
2019-05-16T12:30:01.930Z,9.93
2019-05-16T12:32:32.882Z,10.35
2019-05-16T12:35:03.559Z,10.38
2019-05-16T12:37:36.956Z,11.40
2019-05-16T12:40:06.743Z,10.35
2019-05-16T12:42:37.280Z,11.85
2019-05-16T12:45:08.590Z,10.93
2019-05-16T12:47:39.106Z,10.18
2019-05-16T12:50:10.201Z,11.03
2019-05-16T12:52:40.762Z,10.13
2019-05-16T12:55:12.760Z,10.72
2019-05-16T12:57:43.323Z,9.98
2019-05-16T13:00:15.755Z,10.15
2019-05-16T13:02:47.490Z,10.00
2019-05-16T13:05:18.863Z,9.45
2019-05-16T13:07:49.358Z,9.85
2019-05-16T13:10:20.787Z,10.30
2019-05-16T13:12:51.280Z,9.98
2019-05-16T13:15:21.872Z,10.70
2019-05-16T13:18:04.507Z,10.45
2019-05-16T13:20:37.576Z,10.85
2019-05-16T13:23:14.411Z,11.08
2019-05-16T13:25:39.308Z,11.03
2019-05-16T13:28:09.776Z,10.90
2019-05-16T13:30:40.435Z,11.90
2019-05-16T13:33:11.028Z,10.65
2019-05-16T13:35:41.539Z,11.85
2019-05-16T13:38:12.087Z,11.15
2019-05-16T13:40:42.565Z,12.07
2019-05-16T13:43:13.272Z,11.90
2019-05-16T13:45:43.739Z,11.48
2019-05-16T13:48:14.229Z,11.75
2019-05-16T13:50:47.150Z,11.12
2019-05-16T13:53:17.037Z,11.50
2019-05-16T13:55:47.587Z,11.80
2019-05-16T13:58:18.089Z,11.65
2019-05-16T14:00:48.654Z,11.80
2019-05-16T14:03:19.222Z,12.07
2019-05-16T14:05:49.755Z,11.45
2019-05-16T14:08:20.299Z,12.00
2019-05-16T14:10:50.853Z,12.90
2019-05-16T14:13:21.311Z,12.37
2019-05-16T14:15:51.921Z,11.97
2019-05-16T14:18:22.400Z,12.55
2019-05-16T14:20:52.878Z,12.35
2019-05-16T14:23:23.350Z,13.13
2019-05-16T14:25:53.881Z,12.50
2019-05-16T14:28:24.384Z,12.05
2019-05-16T14:30:57.069Z,12.43
2019-05-16T14:33:27.616Z,13.30
2019-05-16T14:35:59.274Z,12.85
2019-05-16T14:38:29.813Z,12.13
2019-05-16T14:41:00.720Z,12.05
2019-05-16T14:43:31.350Z,12.68
2019-05-16T14:46:01.913Z,12.58
2019-05-16T14:48:32.446Z,12.33
2019-05-16T14:51:03.168Z,11.90
2019-05-16T14:53:33.734Z,12.50
2019-05-16T14:56:07.124Z,12.45
2019-05-16T14:58:37.783Z,11.90
2019-05-16T15:01:08.616Z,11.90
2019-05-16T15:03:39.128Z,12.05
2019-05-16T15:06:09.604Z,12.65
2019-05-16T15:08:40.402Z,12.60
2019-05-16T15:11:10.864Z,11.97
2019-05-16T15:13:41.554Z,11.80
2019-05-16T15:16:12.048Z,12.23
2019-05-16T15:18:42.590Z,12.05
2019-05-16T15:21:13.261Z,12.85
2019-05-16T15:23:43.800Z,13.50
2019-05-16T15:26:14.324Z,13.03
2019-05-16T15:28:47.988Z,12.63
2019-05-16T15:31:16.964Z,13.43
2019-05-16T15:33:47.671Z,12.37
2019-05-16T15:36:18.366Z,12.45
2019-05-16T15:38:48.809Z,12.73
2019-05-16T15:41:19.296Z,13.45
2019-05-16T15:43:50.090Z,12.60
2019-05-16T15:46:20.985Z,12.58
2019-05-16T15:48:51.706Z,12.78
2019-05-16T15:51:23.544Z,12.90
2019-05-16T15:53:57.091Z,12.73
2019-05-16T15:56:27.233Z,13.22
2019-05-16T15:58:58.816Z,12.28
2019-05-16T16:01:28.879Z,12.53
2019-05-16T16:03:59.458Z,13.50
2019-05-16T16:06:30.079Z,13.25
2019-05-16T16:09:00.746Z,13.25
2019-05-16T16:11:32.891Z,13.20
2019-05-16T16:14:03.528Z,13.18
2019-05-16T16:16:34.191Z,13.85
2019-05-16T16:19:06.609Z,14.40
2019-05-16T16:21:37.958Z,16.15
2019-05-16T16:24:09.269Z,16.00
2019-05-16T16:26:39.912Z,16.75
2019-05-16T16:29:10.603Z,18.17
2019-05-16T16:31:41.171Z,16.87
2019-05-16T16:34:11.682Z,16.85
2019-05-16T16:36:42.746Z,18.67
2019-05-16T16:39:13.282Z,19.75
2019-05-16T16:41:43.848Z,20.60
2019-05-16T16:44:17.169Z,19.90
2019-05-16T16:46:46.835Z,20.37
2019-05-16T16:49:17.581Z,20.55
2019-05-16T16:51:48.276Z,20.95
2019-05-16T16:54:18.978Z,20.72
2019-05-16T16:56:49.561Z,19.80
2019-05-16T16:59:20.223Z,18.90
2019-05-16T17:01:50.775Z,18.73
2019-05-16T17:04:21.331Z,17.67
2019-05-16T17:06:51.950Z,17.67
2019-05-16T17:09:22.423Z,18.30
2019-05-16T17:11:53.386Z,19.37
2019-05-16T17:14:25.972Z,18.73
2019-05-16T17:16:57.502Z,18.05
2019-05-16T17:19:28.205Z,17.07
2019-05-16T17:22:13.026Z,16.77
2019-05-16T17:24:31.071Z,16.00
2019-05-16T17:27:07.828Z,15.65
2019-05-16T17:29:37.182Z,15.28
2019-05-16T17:32:10.072Z,15.43
2019-05-16T17:34:42.305Z,15.75
2019-05-16T17:37:30.748Z,15.30
2019-05-16T17:40:37.958Z,15.40
2019-05-16T17:44:20.876Z,15.30
2019-05-16T17:47:46.439Z,14.93
2019-05-16T17:50:37.079Z,14.45
2019-05-16T17:53:07.377Z,14.25
2019-05-16T17:55:39.223Z,14.25
2019-05-16T17:58:09.935Z,13.40
2019-05-16T18:00:41.524Z,14.30
2019-05-16T18:03:12.192Z,14.13
2019-05-16T18:05:42.766Z,14.00
2019-05-16T18:08:14.560Z,14.78
2019-05-16T18:10:47.075Z,14.30
2019-05-16T18:13:17.289Z,14.73
2019-05-16T18:15:47.801Z,15.20
2019-05-16T18:18:18.454Z,14.05
2019-05-16T18:20:58.056Z,13.75
2019-05-16T18:23:21.286Z,14.73
2019-05-16T18:25:51.905Z,15.30
2019-05-16T18:28:22.791Z,16.00
2019-05-16T18:30:53.405Z,15.48
2019-05-16T18:33:23.877Z,15.35
2019-05-16T18:35:54.597Z,15.58
2019-05-16T18:38:26.509Z,15.10
2019-05-16T18:40:57.174Z,14.55
2019-05-16T18:43:27.812Z,15.55
2019-05-16T18:45:58.295Z,15.55
2019-05-16T18:48:28.919Z,15.48
2019-05-16T18:50:59.836Z,14.50
2019-05-16T18:53:30.909Z,15.55
2019-05-16T18:56:01.585Z,15.10
2019-05-16T18:58:32.202Z,15.20
2019-05-16T19:01:02.835Z,14.70
2019-05-16T19:03:33.450Z,14.75
2019-05-16T19:06:04.113Z,14.55
2019-05-16T19:08:36.423Z,15.10
2019-05-16T19:11:07.601Z,14.50
2019-05-16T19:13:38.392Z,15.70
2019-05-16T19:16:08.981Z,14.73
2019-05-16T19:18:39.791Z,14.68
2019-05-16T19:21:10.363Z,15.55
2019-05-16T19:23:40.934Z,16.40
2019-05-16T19:26:11.542Z,14.98
2019-05-16T19:28:42.123Z,15.50
2019-05-16T19:31:12.782Z,15.58
2019-05-16T19:33:43.322Z,15.85
2019-05-16T19:36:13.900Z,15.83
2019-05-16T19:38:46.456Z,15.03
2019-05-16T19:41:16.638Z,13.72
2019-05-16T19:43:47.226Z,14.18
2019-05-16T19:46:17.783Z,14.07
2019-05-16T19:48:48.710Z,14.38
2019-05-16T19:51:19.205Z,15.58
2019-05-16T19:53:49.797Z,15.20
2019-05-16T19:56:20.357Z,14.45
2019-05-16T19:58:50.959Z,15.53
2019-05-16T20:01:21.520Z,14.05
2019-05-16T20:03:52.129Z,17.90
2019-05-16T20:06:22.647Z,15.28
2019-05-16T20:08:53.305Z,14.90
2019-05-16T20:11:23.811Z,15.85
2019-05-16T20:13:56.677Z,14.65
2019-05-16T20:16:27.359Z,15.23
2019-05-16T20:18:58.107Z,15.85
2019-05-16T20:21:28.625Z,15.35
2019-05-16T20:24:00.427Z,14.55
2019-05-16T20:26:30.957Z,14.78
2019-05-16T20:29:01.725Z,15.40
2019-05-16T20:31:32.407Z,13.70
2019-05-16T20:34:03.183Z,14.53
2019-05-16T20:36:34.214Z,14.03
2019-05-16T20:39:08.371Z,14.80
2019-05-16T20:41:38.836Z,14.63
2019-05-16T20:44:09.544Z,14.47
2019-05-16T20:46:40.231Z,15.00
2019-05-16T20:49:11.244Z,14.90
2019-05-16T20:51:41.169Z,14.95
2019-05-16T20:54:11.729Z,15.43
2019-05-16T20:56:42.393Z,15.55
2019-05-16T20:59:13.053Z,15.05
2019-05-16T21:01:43.811Z,14.87
2019-05-16T21:04:14.373Z,14.07
2019-05-16T21:06:57.468Z,14.63
2019-05-16T21:09:17.155Z,15.50
2019-05-16T21:11:50.115Z,14.55
2019-05-16T21:14:19.947Z,14.73
2019-05-16T21:16:50.523Z,15.03
2019-05-16T21:19:22.363Z,15.13
2019-05-16T21:21:52.911Z,14.70
2019-05-16T21:24:23.659Z,15.83
2019-05-16T21:26:54.201Z,14.78
2019-05-16T21:29:47.193Z,14.23
2019-05-16T21:32:17.822Z,14.47
2019-05-16T21:35:00.118Z,14.38
2019-05-16T21:37:30.803Z,15.30
2019-05-16T21:40:01.434Z,14.95
2019-05-16T21:42:33.167Z,14.93
2019-05-16T21:45:03.704Z,14.73
2019-05-16T21:47:36.929Z,15.40
2019-05-16T21:50:09.284Z,15.98
2019-05-16T21:52:39.916Z,16.65
2019-05-16T21:55:10.590Z,16.27
2019-05-16T21:57:41.221Z,16.90
2019-05-16T22:00:21.559Z,16.75
2019-05-16T22:02:54.076Z,17.70
2019-05-16T22:05:24.992Z,17.00
2019-05-16T22:07:56.750Z,18.32
2019-05-16T22:10:27.610Z,18.42
2019-05-16T22:12:59.990Z,18.80
2019-05-16T22:15:31.095Z,20.25
2019-05-16T22:18:01.992Z,19.42
2019-05-16T22:20:32.922Z,18.52
2019-05-16T22:23:03.561Z,20.15
2019-05-16T22:25:34.159Z,19.65
2019-05-16T22:28:07.241Z,19.35
2019-05-16T22:30:37.407Z,21.07
2019-05-16T22:33:09.262Z,21.33
2019-05-16T22:35:39.938Z,20.25
2019-05-16T22:38:12.317Z,20.50
2019-05-16T22:40:42.934Z,20.37
2019-05-16T22:43:13.626Z,22.02
2019-05-16T22:45:46.656Z,20.77
2019-05-16T22:48:17.238Z,19.35
2019-05-16T22:50:48.111Z,18.90
2019-05-16T22:53:18.676Z,20.10
2019-05-16T22:55:49.413Z,21.02
2019-05-16T22:58:19.993Z,20.80
2019-05-16T23:00:50.874Z,21.25
2019-05-16T23:03:21.560Z,19.67
2019-05-16T23:05:52.219Z,19.90
2019-05-16T23:08:22.829Z,18.50
2019-05-16T23:10:53.412Z,19.20
2019-05-16T23:13:23.915Z,18.55
2019-05-16T23:15:54.436Z,20.10
2019-05-16T23:18:26.708Z,19.30
2019-05-16T23:20:57.126Z,19.20
2019-05-16T23:23:27.818Z,19.10
2019-05-16T23:25:58.374Z,17.65
2019-05-16T23:28:29.029Z,17.52
2019-05-16T23:30:59.567Z,16.82
2019-05-16T23:33:30.109Z,16.42
2019-05-16T23:36:00.718Z,16.30
2019-05-16T23:38:31.258Z,15.32
2019-05-16T23:41:01.919Z,15.63
2019-05-16T23:43:32.610Z,15.15
2019-05-16T23:46:03.177Z,14.98
2019-05-16T23:48:33.712Z,15.72
2019-05-16T23:51:04.796Z,15.20
2019-05-16T23:53:37.081Z,15.20
2019-05-16T23:56:07.709Z,17.23
2019-05-16T23:58:44.247Z,16.00
